Time;durP1;ratioP1;P1;durP2;ratioP2;P2;SDS_P1;SDS_P2;PMS_P1;PMS_P2;Temp;Humidity;BMP_temperature;BMP_pressure;BME280_temperature;BME280_humidity;BME280_pressure;Samples;Min_cycle;Max_cycle;Signal;HPM_P1;HPM_P2
2023/10/19 00:01:11;;;;;;;6.10;3.58;;;15.70;85.30;;;;;;4973914;28;20059;-81
2023/10/19 00:03:37;;;;;;;5.50;3.25;;;15.70;85.40;;;;;;4956497;28;20061;-82
2023/10/19 00:06:03;;;;;;;6.07;3.70;;;15.70;85.50;;;;;;4974017;28;20110;-81
2023/10/19 00:08:36;;;;;;;6.40;3.70;;;15.60;85.50;;;;;;4956624;28;20023;-81
2023/10/19 00:11:04;;;;;;;5.75;3.60;;;15.60;85.60;;;;;;4956627;28;20026;-81
2023/10/19 00:13:30;;;;;;;6.30;3.63;;;15.50;85.50;;;;;;4956411;28;20521;-81
2023/10/19 00:15:57;;;;;;;6.43;3.80;;;15.70;85.70;;;;;;4956512;28;20031;-81
2023/10/19 00:18:24;;;;;;;6.28;3.83;;;15.60;85.70;;;;;;4956549;28;20026;-81
2023/10/19 00:21:11;;;;;;;5.93;3.50;;;15.60;85.70;;;;;;4958038;28;20508;-81
2023/10/19 00:23:39;;;;;;;6.20;3.63;;;15.60;85.70;;;;;;4977626;28;20030;-81
2023/10/19 00:26:08;;;;;;;6.47;3.70;;;15.60;85.70;;;;;;4960549;28;20086;-81
2023/10/19 00:28:35;;;;;;;5.72;3.33;;;15.60;85.80;;;;;;4960257;28;20023;-81
2023/10/19 00:31:07;;;;;;;6.25;3.75;;;15.60;85.80;;;;;;4960460;28;20027;-81
2023/10/19 00:33:33;;;;;;;5.82;3.80;;;15.60;85.80;;;;;;4960101;28;20026;-81
2023/10/19 00:36:08;;;;;;;5.32;3.33;;;15.60;85.80;;;;;;4977625;28;20629;-81
2023/10/19 00:43:43;;;;;;;6.05;3.65;;;15.70;85.90;;;;;;4977485;28;20125;-81
2023/10/19 00:48:49;;;;;;;6.03;3.88;;;15.60;85.90;;;;;;4977449;28;20022;-81
2023/10/19 00:51:41;;;;;;;5.88;3.40;;;15.60;85.80;;;;;;4959898;28;20023;-81
2023/10/19 00:54:40;;;;;;;5.45;3.42;;;15.70;85.80;;;;;;4959717;28;20058;-82
2023/10/19 00:57:08;;;;;;;6.13;3.55;;;15.70;85.70;;;;;;4959976;28;20461;-81
2023/10/19 00:59:53;;;;;;;6.30;3.78;;;15.70;85.50;;;;;;4959736;28;20037;-81
2023/10/19 01:02:28;;;;;;;6.57;3.88;;;15.70;85.50;;;;;;4970452;28;20026;-81
2023/10/19 01:05:00;;;;;;;6.50;3.60;;;15.70;85.40;;;;;;4996477;28;20030;-81
2023/10/19 01:07:27;;;;;;;6.07;3.85;;;15.70;85.40;;;;;;4978870;28;20033;-82
2023/10/19 01:09:59;;;;;;;6.15;3.85;;;15.80;85.50;;;;;;4979186;28;20033;-81
2023/10/19 01:12:33;;;;;;;5.43;3.60;;;15.70;85.50;;;;;;4978927;28;20023;-81
2023/10/19 01:15:20;;;;;;;5.80;3.60;;;15.60;86.10;;;;;;4978862;28;20022;-81
2023/10/19 01:17:57;;;;;;;6.72;3.88;;;15.60;85.60;;;;;;4978823;28;20470;-81
2023/10/19 01:28:26;;;;;;;6.38;3.55;;;15.60;86.30;;;;;;4996113;28;20093;-81
2023/10/19 01:30:51;;;;;;;6.35;3.78;;;15.60;85.90;;;;;;4996105;28;20495;-81
2023/10/19 01:33:21;;;;;;;6.45;3.88;;;15.60;85.90;;;;;;4977534;28;20018;-81
2023/10/19 01:38:31;;;;;;;6.15;3.95;;;15.60;85.90;;;;;;4996261;28;20169;-82
2023/10/19 01:41:01;;;;;;;5.93;3.85;;;15.60;86.00;;;;;;4978425;28;20031;-81
2023/10/19 01:43:30;;;;;;;6.25;3.80;;;15.60;85.90;;;;;;4995518;28;20495;-81
2023/10/19 01:46:04;;;;;;;6.90;3.95;;;15.60;86.00;;;;;;4979467;28;20040;-81
2023/10/19 01:48:33;;;;;;;5.47;3.50;;;15.60;86.00;;;;;;4978328;28;20030;-82
2023/10/19 01:51:04;;;;;;;6.15;4.00;;;15.60;86.00;;;;;;4978269;28;20449;-81
2023/10/19 01:53:31;;;;;;;6.22;4.25;;;15.50;86.00;;;;;;4977882;28;20030;-81
2023/10/19 01:55:58;;;;;;;5.65;3.60;;;15.60;86.00;;;;;;4978286;28;20031;-81
2023/10/19 01:58:27;;;;;;;6.40;3.90;;;15.50;86.00;;;;;;4995391;28;20018;-81
2023/10/19 02:01:00;;;;;;;5.55;3.65;;;15.60;86.10;;;;;;4978835;28;20022;-81
2023/10/19 02:03:28;;;;;;;5.82;3.55;;;15.60;86.10;;;;;;4997206;28;20026;-81
2023/10/19 02:06:10;;;;;;;6.85;3.90;;;15.40;85.90;;;;;;4997502;28;20488;-81
2023/10/19 02:08:38;;;;;;;5.95;3.92;;;15.60;86.00;;;;;;4997562;28;20068;-81
2023/10/19 02:11:13;;;;;;;7.15;4.20;;;15.60;85.90;;;;;;4997494;28;20026;-81
2023/10/19 02:13:39;;;;;;;6.10;3.97;;;15.60;85.80;;;;;;4997466;28;20496;-82
2023/10/19 02:16:06;;;;;;;5.68;3.63;;;15.60;85.70;;;;;;4997573;28;20068;-81
2023/10/19 02:18:34;;;;;;;7.00;3.58;;;15.70;85.70;;;;;;4997340;28;20030;-81
2023/10/19 02:21:05;;;;;;;5.88;3.80;;;15.60;85.60;;;;;;4997532;28;20041;-82
2023/10/19 02:23:32;;;;;;;6.80;3.90;;;15.60;85.70;;;;;;4996861;28;20022;-81
2023/10/19 02:25:58;;;;;;;5.97;3.50;;;15.70;85.80;;;;;;4975460;28;20030;-81
2023/10/19 02:28:29;;;;;;;6.68;3.97;;;15.60;85.80;;;;;;4979445;28;20027;-81
2023/10/19 02:30:55;;;;;;;6.50;3.85;;;15.60;85.90;;;;;;4997120;28;20022;-81
2023/10/19 02:33:20;;;;;;;6.03;3.53;;;15.60;85.90;;;;;;4996751;28;20029;-81
2023/10/19 02:35:47;;;;;;;6.47;3.72;;;15.60;85.90;;;;;;4996900;28;20048;-81
2023/10/19 02:38:13;;;;;;;6.13;3.45;;;15.60;86.00;;;;;;4996626;28;20049;-81
2023/10/19 02:40:39;;;;;;;5.80;3.70;;;15.60;86.00;;;;;;4996929;28;20496;-82
2023/10/19 02:43:05;;;;;;;6.15;3.67;;;15.50;86.00;;;;;;4996662;28;20037;-81
2023/10/19 02:45:31;;;;;;;6.35;3.67;;;15.50;86.00;;;;;;4996754;28;20037;-82
2023/10/19 02:47:58;;;;;;;6.95;4.03;;;15.60;86.20;;;;;;5014302;28;20534;-81
2023/10/19 02:50:26;;;;;;;6.28;3.80;;;15.60;86.10;;;;;;4996740;28;20022;-81
2023/10/19 02:52:53;;;;;;;6.53;4.20;;;15.60;86.20;;;;;;4996528;28;20048;-82
2023/10/19 02:55:20;;;;;;;6.25;3.70;;;15.50;86.10;;;;;;4996489;28;20799;-81
2023/10/19 02:57:46;;;;;;;5.78;3.50;;;15.50;86.20;;;;;;4996503;28;20033;-81
2023/10/19 03:00:14;;;;;;;6.00;3.75;;;15.50;86.20;;;;;;4996370;28;20398;-81
2023/10/19 03:02:40;;;;;;;5.57;3.65;;;15.50;86.20;;;;;;4996114;28;20028;-81
2023/10/19 03:05:14;;;;;;;6.05;3.83;;;15.50;86.20;;;;;;4996257;28;20038;-82
2023/10/19 03:07:43;;;;;;;6.07;3.90;;;15.50;86.20;;;;;;4996174;28;20117;-81
2023/10/19 03:10:22;;;;;;;6.20;4.05;;;15.50;86.30;;;;;;5013643;28;20018;-82
2023/10/19 03:12:49;;;;;;;5.57;3.45;;;15.50;86.20;;;;;;4996134;28;20030;-81
2023/10/19 03:15:15;;;;;;;6.53;4.15;;;15.50;86.30;;;;;;4996094;28;20125;-81
2023/10/19 03:17:41;;;;;;;5.85;4.00;;;15.50;86.30;;;;;;5013881;28;20096;-82
2023/10/19 03:20:07;;;;;;;6.47;3.75;;;15.50;86.20;;;;;;4996132;28;20049;-81
2023/10/19 03:22:33;;;;;;;5.70;3.72;;;15.60;86.20;;;;;;4995886;28;20048;-79
2023/10/19 03:25:49;;;;;;;6.13;3.65;;;15.60;86.20;;;;;;4995988;28;20592;-81
2023/10/19 03:27:45;;;;;;;5.57;3.60;;;15.60;86.10;;;;;;5002824;28;20077;-82
2023/10/19 03:30:15;;;;;;;7.20;4.03;;;15.60;86.00;;;;;;4995883;28;20053;-82
2023/10/19 03:32:41;;;;;;;5.68;3.50;;;15.60;85.90;;;;;;5013354;28;20032;-81
2023/10/19 03:35:07;;;;;;;5.57;3.45;;;15.60;85.90;;;;;;4995691;28;20030;-81
2023/10/19 03:37:35;;;;;;;5.90;3.40;;;15.60;85.90;;;;;;4995754;28;20030;-80
2023/10/19 03:40:06;;;;;;;4.93;3.17;;;15.60;86.40;;;;;;5013421;28;20045;-82
2023/10/19 03:42:32;;;;;;;5.70;3.70;;;15.60;86.00;;;;;;4995699;28;20022;-79
2023/10/19 03:44:59;;;;;;;6.07;3.50;;;15.60;86.00;;;;;;4995511;28;20034;-81
2023/10/19 03:47:34;;;;;;;6.10;3.75;;;15.60;86.10;;;;;;4995526;28;20117;-81
2023/10/19 03:50:06;;;;;;;5.80;3.63;;;15.60;86.10;;;;;;4995627;28;20530;-81
2023/10/19 03:52:37;;;;;;;5.47;3.40;;;15.50;86.10;;;;;;5013227;28;20022;-79
2023/10/19 03:55:05;;;;;;;6.05;3.50;;;15.50;86.20;;;;;;4994899;28;20052;-81
2023/10/19 03:57:31;;;;;;;5.70;3.47;;;15.50;86.20;;;;;;5013061;28;20026;-81
2023/10/19 03:59:56;;;;;;;5.90;3.50;;;15.50;86.20;;;;;;4995551;28;20403;-81
2023/10/19 04:02:28;;;;;;;6.00;3.60;;;15.50;86.30;;;;;;4995663;28;20480;-82
2023/10/19 04:04:55;;;;;;;5.82;3.40;;;15.50;86.30;;;;;;4995392;28;20026;-82
2023/10/19 04:07:21;;;;;;;5.43;3.10;;;15.50;86.30;;;;;;4995188;28;20030;-82
2023/10/19 04:10:04;;;;;;;5.82;3.58;;;15.50;86.30;;;;;;4995443;28;20395;-81
2023/10/19 04:12:30;;;;;;;6.15;3.58;;;15.50;86.40;;;;;;4995228;28;20053;-81
2023/10/19 04:14:56;;;;;;;5.90;3.47;;;15.50;86.40;;;;;;4995097;28;20088;-81
2023/10/19 04:17:24;;;;;;;5.53;3.28;;;15.50;86.90;;;;;;4995228;28;20488;-81
2023/10/19 04:19:54;;;;;;;6.53;3.83;;;15.50;86.40;;;;;;4995229;28;20032;-81
2023/10/19 04:22:23;;;;;;;5.70;3.40;;;15.50;86.50;;;;;;4995248;28;20022;-81
2023/10/19 04:24:53;;;;;;;5.75;3.38;;;15.50;86.50;;;;;;4986508;28;20030;-81
2023/10/19 04:27:23;;;;;;;5.63;3.55;;;15.50;86.50;;;;;;4957761;28;20023;-81
2023/10/19 04:29:49;;;;;;;5.13;3.25;;;15.50;86.50;;;;;;4956502;28;20034;-82
2023/10/19 04:32:23;;;;;;;5.13;3.17;;;15.50;86.50;;;;;;4956455;28;20077;-81
2023/10/19 04:34:48;;;;;;;5.10;3.03;;;15.50;86.50;;;;;;4956586;28;20114;-82
2023/10/19 04:37:18;;;;;;;5.93;3.47;;;15.50;86.50;;;;;;4956458;28;20062;-83
2023/10/19 04:39:44;;;;;;;6.13;3.50;;;15.50;86.40;;;;;;4974267;28;20040;-81
2023/10/19 04:42:09;;;;;;;5.15;3.22;;;15.50;86.40;;;;;;4968010;28;20034;-82
2023/10/19 04:44:35;;;;;;;5.10;3.20;;;15.60;86.30;;;;;;4998026;28;20033;-82
2023/10/19 04:47:01;;;;;;;5.30;3.50;;;15.60;86.20;;;;;;4998783;28;20172;-83
2023/10/19 04:49:26;;;;;;;5.75;3.15;;;15.60;86.20;;;;;;4999536;28;20085;-83
2023/10/19 04:51:52;;;;;;;5.85;3.25;;;15.60;86.10;;;;;;5000163;28;20033;-82
2023/10/19 04:54:17;;;;;;;5.38;3.20;;;15.60;86.10;;;;;;4998584;28;20308;-82
2023/10/19 04:56:43;;;;;;;4.90;3.03;;;15.60;86.20;;;;;;4998968;28;20116;-82
2023/10/19 04:59:08;;;;;;;4.78;2.83;;;15.60;86.20;;;;;;4984110;28;20045;-82
2023/10/19 05:01:34;;;;;;;4.97;3.10;;;15.50;86.20;;;;;;4997931;28;20078;-84
2023/10/19 05:04:00;;;;;;;5.25;3.20;;;15.50;86.30;;;;;;4979460;28;20481;-82
2023/10/19 05:06:25;;;;;;;5.38;3.03;;;15.50;86.40;;;;;;4976730;28;20035;-86
2023/10/19 05:08:52;;;;;;;5.25;3.17;;;15.50;86.40;;;;;;4979374;28;20393;-82
2023/10/19 05:11:17;;;;;;;4.97;3.10;;;15.50;86.50;;;;;;4979944;28;20396;-83
2023/10/19 05:13:43;;;;;;;5.38;3.08;;;15.50;86.50;;;;;;4980848;28;20046;-83
2023/10/19 05:16:09;;;;;;;5.45;3.08;;;15.50;86.60;;;;;;4998197;28;20595;-85
2023/10/19 05:18:34;;;;;;;5.93;3.22;;;15.50;86.60;;;;;;4981169;28;20022;-84
2023/10/19 05:21:00;;;;;;;5.28;2.80;;;15.50;86.60;;;;;;4980627;28;20035;-82
2023/10/19 05:23:27;;;;;;;5.32;3.20;;;15.50;86.60;;;;;;4977346;28;20173;-82
2023/10/19 05:25:59;;;;;;;5.57;3.13;;;15.50;86.60;;;;;;4973785;28;20121;-81
2023/10/19 05:28:24;;;;;;;;;;;15.50;86.60;;;;;;4974403;28;20034;-78
2023/10/19 05:30:50;;;;;;;4.68;3.00;;;15.50;86.70;;;;;;4974169;28;19912;-82
2023/10/19 05:33:16;;;;;;;5.47;3.22;;;15.50;86.70;;;;;;4961518;28;20037;-79
2023/10/19 05:35:41;;;;;;;5.03;3.00;;;15.50;86.80;;;;;;4971989;28;20105;-81
2023/10/19 05:38:08;;;;;;;5.03;2.90;;;15.50;86.70;;;;;;4956302;28;20061;-80
2023/10/19 05:40:35;;;;;;;5.40;2.83;;;15.50;86.80;;;;;;4974805;28;20081;-82
2023/10/19 05:43:01;;;;;;;4.75;2.90;;;15.40;86.70;;;;;;4975206;28;20049;-82
2023/10/19 05:45:28;;;;;;;4.68;2.90;;;15.50;86.80;;;;;;4975446;28;20496;-81
2023/10/19 05:47:55;;;;;;;5.60;3.00;;;15.50;86.80;;;;;;4974769;28;20038;-82
2023/10/19 05:50:21;;;;;;;5.05;2.80;;;15.40;86.70;;;;;;4978544;28;20031;-81
2023/10/19 05:52:48;;;;;;;5.47;2.90;;;15.50;87.30;;;;;;4995948;28;20030;-83
2023/10/19 05:55:14;;;;;;;4.85;2.90;;;15.50;86.70;;;;;;4975487;28;20034;-82
2023/10/19 05:57:40;;;;;;;4.30;2.60;;;15.50;86.70;;;;;;4977566;28;20034;-82
2023/10/19 06:00:12;;;;;;;4.47;2.78;;;15.60;86.70;;;;;;4967553;28;20034;-83
2023/10/19 06:02:38;;;;;;;;;;;15.60;86.60;;;;;;4958668;28;20058;-83
2023/10/19 06:05:05;;;;;;;5.18;2.70;;;15.60;86.40;;;;;;4957989;28;19916;-83
2023/10/19 06:07:31;;;;;;;5.05;3.03;;;15.60;86.40;;;;;;4958242;28;20031;-82
2023/10/19 06:09:56;;;;;;;4.90;2.53;;;15.60;86.40;;;;;;4958178;28;20829;-83
2023/10/19 06:12:22;;;;;;;4.75;2.65;;;15.60;86.50;;;;;;4958184;28;20027;-83
2023/10/19 06:14:47;;;;;;;4.68;2.67;;;15.50;86.50;;;;;;4975621;28;20031;-83
2023/10/19 06:17:18;;;;;;;4.82;2.88;;;15.50;86.60;;;;;;4958277;28;20041;-83
2023/10/19 06:19:45;;;;;;;4.78;2.65;;;15.50;86.60;;;;;;4957768;28;20108;-82
2023/10/19 06:22:12;;;;;;;4.38;2.65;;;15.50;86.70;;;;;;4958718;28;20035;-82
2023/10/19 06:24:37;;;;;;;4.75;2.75;;;15.50;86.70;;;;;;4957579;28;20156;-82
2023/10/19 06:27:03;;;;;;;4.78;2.92;;;15.50;86.80;;;;;;4957376;28;20559;-82
2023/10/19 06:29:29;;;;;;;5.05;2.58;;;15.50;86.80;;;;;;4957508;28;20390;-82
2023/10/19 06:31:55;;;;;;;4.68;2.80;;;15.50;86.80;;;;;;4974815;28;20050;-82
2023/10/19 06:34:20;;;;;;;5.47;3.17;;;15.50;86.80;;;;;;4956674;28;20019;-82
2023/10/19 06:36:46;;;;;;;4.78;2.60;;;15.40;86.80;;;;;;4958274;28;20034;-82
2023/10/19 06:39:13;;;;;;;4.53;2.50;;;15.50;86.90;;;;;;4957953;28;20507;-82
2023/10/19 06:41:39;;;;;;;4.55;2.60;;;15.50;86.90;;;;;;4958061;28;20388;-82
2023/10/19 06:44:05;;;;;;;5.07;3.00;;;15.40;86.90;;;;;;4974842;28;20093;-82
2023/10/19 06:46:31;;;;;;;5.03;2.67;;;15.50;86.90;;;;;;4974840;28;20081;-82
2023/10/19 06:49:00;;;;;;;4.30;2.63;;;15.40;86.90;;;;;;4958132;28;20485;-83
2023/10/19 06:51:26;;;;;;;5.28;2.80;;;15.40;86.90;;;;;;4958137;28;20046;-81
2023/10/19 06:53:52;;;;;;;4.68;2.63;;;15.40;86.90;;;;;;4957618;28;20038;-82
2023/10/19 06:56:18;;;;;;;4.47;2.70;;;15.40;87.00;;;;;;4957757;28;20034;-82
2023/10/19 06:58:44;;;;;;;4.50;2.60;;;15.40;86.90;;;;;;4975778;28;20157;-83
2023/10/19 07:01:10;;;;;;;4.57;2.42;;;15.40;87.00;;;;;;4975860;28;20055;-82
2023/10/19 07:03:36;;;;;;;4.72;2.70;;;15.50;87.00;;;;;;4959335;28;20042;-81
2023/10/19 07:06:02;;;;;;;5.07;2.58;;;15.50;87.00;;;;;;4976074;28;20290;-80
2023/10/19 07:08:28;;;;;;;4.40;2.38;;;15.50;87.00;;;;;;4963333;28;20506;-82
2023/10/19 07:10:54;;;;;;;4.75;2.40;;;15.50;87.00;;;;;;4976247;28;20030;-81
2023/10/19 07:13:20;;;;;;;4.72;2.60;;;15.50;86.90;;;;;;4975456;28;20034;-82
2023/10/19 07:15:47;;;;;;;4.05;2.47;;;15.50;86.80;;;;;;4962024;28;20386;-82
2023/10/19 07:18:13;;;;;;;4.78;2.40;;;15.60;86.80;;;;;;4956430;28;20045;-82
2023/10/19 07:20:39;;;;;;;3.65;2.28;;;15.60;86.70;;;;;;4956833;28;20031;-82
2023/10/19 07:23:26;;;;;;;5.57;2.70;;;15.50;86.60;;;;;;4956159;28;20022;-84
2023/10/19 07:25:56;;;;;;;4.63;2.42;;;15.50;86.60;;;;;;4957670;28;20035;-83
2023/10/19 07:28:26;;;;;;;3.75;2.20;;;15.50;86.60;;;;;;4957384;28;20027;-82
2023/10/19 07:30:51;;;;;;;4.22;2.38;;;15.50;86.70;;;;;;4956148;28;20031;-82
2023/10/19 07:33:17;;;;;;;4.22;2.50;;;15.50;86.70;;;;;;4955647;28;20034;-82
2023/10/19 07:35:46;;;;;;;4.78;2.42;;;15.50;86.80;;;;;;4972757;28;20050;-83
2023/10/19 07:38:13;;;;;;;4.72;2.40;;;15.50;86.90;;;;;;4960306;28;20023;-82
2023/10/19 07:40:39;;;;;;;4.03;2.55;;;15.50;86.90;;;;;;4957037;28;20105;-82
2023/10/19 07:43:05;;;;;;;3.83;2.33;;;15.50;86.90;;;;;;4957481;28;20023;-82
2023/10/19 07:45:31;;;;;;;5.10;2.70;;;15.50;87.00;;;;;;4957382;28;20023;-82
2023/10/19 07:47:58;;;;;;;4.30;2.20;;;15.50;87.00;;;;;;4957674;28;20118;-80
2023/10/19 07:50:23;;;;;;;7.00;2.50;;;15.50;87.00;;;;;;4973606;28;20033;-81
2023/10/19 07:52:53;;;;;;;7.55;3.13;;;15.50;87.10;;;;;;4957121;28;20026;-80
2023/10/19 07:55:22;;;;;;;7.90;2.92;;;15.50;86.50;;;;;;4956794;28;20070;-81
2023/10/19 07:57:50;;;;;;;9.25;2.90;;;15.50;86.50;;;;;;4956394;28;20030;-80
2023/10/19 08:00:17;;;;;;;6.53;2.67;;;15.50;86.60;;;;;;4973738;28;20104;-80
2023/10/19 08:02:46;;;;;;;6.63;2.85;;;15.40;86.60;;;;;;4956587;28;20030;-79
2023/10/19 08:05:12;;;;;;;7.85;2.78;;;15.50;86.70;;;;;;4956531;28;20439;-80
2023/10/19 08:07:42;;;;;;;6.35;2.72;;;15.50;86.80;;;;;;4957203;28;20042;-81
2023/10/19 08:10:12;;;;;;;5.88;2.80;;;15.40;86.80;;;;;;4957155;28;20027;-80
2023/10/19 08:12:42;;;;;;;6.97;2.88;;;15.40;86.80;;;;;;4988817;28;20022;-80
2023/10/19 08:15:11;;;;;;;6.15;2.92;;;15.40;86.90;;;;;;5013312;28;20026;-81
2023/10/19 08:17:40;;;;;;;5.50;3.03;;;15.40;86.90;;;;;;5013957;28;20134;-83
2023/10/19 08:20:15;;;;;;;6.72;2.67;;;15.60;87.00;;;;;;4994820;28;20069;-82
2023/10/19 08:22:46;;;;;;;5.93;2.50;;;15.40;87.00;;;;;;4972288;28;20027;-84
2023/10/19 08:25:14;;;;;;;7.53;2.80;;;15.50;87.00;;;;;;5016054;23;20078;-81
2023/10/19 08:27:44;;;;;;;4.22;2.45;;;15.50;87.00;;;;;;4960061;28;20074;-79
2023/10/19 08:30:13;;;;;;;4.03;2.25;;;15.50;87.50;;;;;;4977750;28;20441;-79
2023/10/19 08:32:39;;;;;;;4.90;2.28;;;15.50;86.90;;;;;;4959959;28;20086;-82
2023/10/19 08:35:06;;;;;;;6.82;2.63;;;15.60;86.80;;;;;;4976312;28;20031;-81
2023/10/19 08:37:31;;;;;;;7.60;2.75;;;15.60;86.80;;;;;;4960465;28;20034;-81
2023/10/19 08:40:00;;;;;;;5.28;2.50;;;15.60;86.80;;;;;;4960211;28;20045;-81
2023/10/19 08:42:25;;;;;;;5.10;2.40;;;15.70;86.80;;;;;;4963531;28;20022;-81
2023/10/19 08:44:54;;;;;;;5.18;2.63;;;15.50;86.70;;;;;;4963723;28;20049;-81
2023/10/19 08:47:21;;;;;;;4.80;2.35;;;15.50;86.80;;;;;;4964244;28;20493;-81
2023/10/19 08:49:46;;;;;;;4.82;2.60;;;15.50;86.90;;;;;;4961750;28;20082;-80
2023/10/19 08:52:13;;;;;;;5.32;2.45;;;15.50;86.80;;;;;;4964000;28;20027;-81
2023/10/19 08:54:39;;;;;;;8.30;2.42;;;15.50;86.90;;;;;;4964057;28;20034;-82
2023/10/19 08:57:05;;;;;;;5.07;2.30;;;15.50;87.00;;;;;;4963601;28;20031;-81
2023/10/19 08:59:31;;;;;;;5.63;2.50;;;15.50;87.00;;;;;;4962795;28;20037;-81
2023/10/19 09:02:03;;;;;;;6.50;2.50;;;15.50;87.00;;;;;;4981705;28;20031;-81
2023/10/19 09:04:29;;;;;;;3.38;2.17;;;15.50;87.00;;;;;;4964397;28;20026;-82
2023/10/19 09:06:55;;;;;;;5.13;2.63;;;15.50;87.00;;;;;;4963671;28;20034;-80
2023/10/19 09:09:21;;;;;;;3.70;2.30;;;15.50;87.00;;;;;;4964836;28;20034;-81
2023/10/19 09:11:50;;;;;;;4.35;2.30;;;15.50;87.00;;;;;;4962882;28;20053;-78
2023/10/19 09:14:30;;;;;;;4.32;2.30;;;15.60;87.10;;;;;;4963414;28;20019;-80
2023/10/19 09:16:57;;;;;;;4.95;2.30;;;15.60;87.00;;;;;;4964628;28;20035;-81
2023/10/19 09:19:43;;;;;;;4.82;2.28;;;15.60;87.00;;;;;;4980906;28;20134;-81
2023/10/19 09:22:19;;;;;;;5.03;2.50;;;15.60;87.00;;;;;;4963836;28;20043;-81
2023/10/19 09:24:49;;;;;;;4.72;2.50;;;15.60;86.90;;;;;;4963542;28;20496;-81
2023/10/19 09:27:17;;;;;;;4.60;2.40;;;15.60;87.00;;;;;;4963778;28;20378;-81
2023/10/19 09:29:43;;;;;;;5.18;2.47;;;15.60;87.00;;;;;;4963489;28;20038;-81
2023/10/19 09:32:09;;;;;;;4.57;2.40;;;15.60;87.10;;;;;;4962944;28;20031;-81
2023/10/19 09:34:35;;;;;;;6.18;2.60;;;15.50;87.10;;;;;;4958653;28;20030;-82
2023/10/19 09:37:03;;;;;;;4.75;2.25;;;15.60;87.20;;;;;;4947208;29;20055;-82
2023/10/19 09:39:34;;;;;;;3.90;2.13;;;15.60;87.20;;;;;;4948031;28;20054;-82
2023/10/19 09:42:10;;;;;;;4.53;2.40;;;15.60;87.10;;;;;;4962811;28;20097;-83
2023/10/19 09:44:43;;;;;;;5.03;2.40;;;15.60;87.10;;;;;;4963016;28;20038;-83
2023/10/19 09:47:20;;;;;;;4.65;2.40;;;15.60;87.00;;;;;;4962954;28;20477;-82
2023/10/19 09:49:49;;;;;;;4.10;2.13;;;15.60;87.40;;;;;;4976325;28;20168;-83
2023/10/19 09:52:16;;;;;;;3.28;2.10;;;15.70;86.90;;;;;;4978699;28;20045;-81
2023/10/19 09:55:10;;;;;;;3.95;2.05;;;15.60;86.80;;;;;;4962011;28;20397;-83
2023/10/19 09:57:43;;;;;;;3.97;2.17;;;15.60;86.80;;;;;;4962586;28;20035;-83
2023/10/19 10:00:12;;;;;;;4.25;2.28;;;15.70;86.90;;;;;;4979369;28;20097;-82
2023/10/19 10:02:47;;;;;;;4.82;2.30;;;15.60;87.20;;;;;;4962124;28;20069;-82
2023/10/19 10:05:43;;;;;;;3.72;2.10;;;15.60;87.00;;;;;;4962520;28;20035;-82
2023/10/19 10:08:18;;;;;;;3.28;1.95;;;15.60;87.10;;;;;;4962870;28;20031;-81
2023/10/19 10:10:47;;;;;;;5.20;1.98;;;15.60;87.20;;;;;;4963244;28;20086;-82
2023/10/19 10:13:28;;;;;;;3.55;2.13;;;15.60;87.20;;;;;;4979429;28;20441;-80
2023/10/19 10:15:54;;;;;;;4.28;2.30;;;15.60;87.30;;;;;;4962321;28;20023;-82
2023/10/19 10:18:20;;;;;;;4.63;2.15;;;15.60;87.30;;;;;;4980535;28;20054;-81
2023/10/19 10:20:47;;;;;;;3.97;2.20;;;15.60;87.40;;;;;;4963216;28;20026;-82
2023/10/19 10:23:17;;;;;;;3.97;2.10;;;15.60;87.40;;;;;;4962649;28;20500;-79
2023/10/19 10:25:48;;;;;;;3.58;2.00;;;15.60;87.40;;;;;;4963247;28;20039;-83
2023/10/19 10:28:15;;;;;;;4.72;2.10;;;15.50;87.40;;;;;;4963051;28;20035;-81
2023/10/19 10:31:07;;;;;;;4.22;2.28;;;15.60;87.50;;;;;;4962090;28;20027;-82
2023/10/19 10:33:51;;;;;;;4.53;2.10;;;15.50;87.40;;;;;;4974299;28;20532;-85
2023/10/19 10:36:18;;;;;;;3.65;2.10;;;15.50;87.50;;;;;;4975411;28;20050;-83
2023/10/19 10:38:45;;;;;;;3.90;2.05;;;15.60;87.50;;;;;;4960443;28;20054;-84
2023/10/19 10:41:10;;;;;;;4.75;2.30;;;15.60;87.50;;;;;;4959750;28;20122;-83
2023/10/19 10:43:54;;;;;;;4.10;1.92;;;15.60;87.50;;;;;;4959671;28;20055;-80
2023/10/19 10:46:21;;;;;;;3.40;2.00;;;15.60;87.40;;;;;;4960442;28;20054;-83
2023/10/19 10:48:48;;;;;;;4.05;2.15;;;15.60;87.30;;;;;;4978688;28;20034;-82
2023/10/19 10:51:25;;;;;;;4.57;2.10;;;15.60;87.20;;;;;;4960460;28;20023;-82
2023/10/19 10:53:53;;;;;;;4.55;2.03;;;15.60;87.70;;;;;;4976903;28;20027;-82
2023/10/19 10:56:21;;;;;;;2.97;1.80;;;15.70;87.10;;;;;;4976158;28;20054;-82
2023/10/19 10:58:47;;;;;;;3.78;2.10;;;15.70;87.00;;;;;;4957179;28;20035;-83
2023/10/19 11:01:13;;;;;;;3.50;1.98;;;15.80;87.40;;;;;;4975456;28;20057;-82
2023/10/19 11:03:40;;;;;;;4.00;2.00;;;15.70;86.70;;;;;;4957509;28;20076;-84
2023/10/19 11:06:09;;;;;;;3.90;1.92;;;15.80;86.60;;;;;;4956256;28;20191;-82
2023/10/19 11:08:36;;;;;;;3.85;2.00;;;15.80;86.50;;;;;;4957427;28;20031;-83
2023/10/19 11:11:04;;;;;;;2.88;1.80;;;15.80;86.50;;;;;;4958696;28;20030;-83
2023/10/19 11:13:33;;;;;;;3.60;1.90;;;15.80;86.50;;;;;;4957639;28;20026;-82
2023/10/19 11:16:01;;;;;;;3.50;1.80;;;15.80;86.60;;;;;;4958250;28;20053;-84
2023/10/19 11:18:40;;;;;;;3.28;1.88;;;15.80;86.60;;;;;;4957656;28;20081;-82
2023/10/19 11:21:10;;;;;;;3.30;1.90;;;15.80;86.70;;;;;;4957573;28;20027;-82
2023/10/19 11:23:36;;;;;;;2.83;1.80;;;15.80;86.80;;;;;;4957676;28;20041;-82
2023/10/19 11:26:02;;;;;;;3.60;1.90;;;15.70;86.90;;;;;;4957560;28;20037;-83
2023/10/19 11:28:29;;;;;;;2.47;1.73;;;15.70;86.90;;;;;;4957774;28;20023;-82
2023/10/19 11:31:09;;;;;;;3.67;2.10;;;15.70;86.90;;;;;;4957391;28;20037;-83
2023/10/19 11:33:35;;;;;;;5.35;2.00;;;15.70;87.00;;;;;;4958766;28;20023;-82
2023/10/19 11:36:02;;;;;;;2.83;1.73;;;15.80;87.10;;;;;;4959135;28;20038;-82
2023/10/19 11:38:27;;;;;;;3.70;1.77;;;15.70;87.10;;;;;;4958649;28;20030;-81
2023/10/19 11:40:53;;;;;;;3.35;1.70;;;15.70;87.10;;;;;;4972303;28;20038;-83
2023/10/19 11:43:18;;;;;;;3.20;1.75;;;15.70;87.10;;;;;;4953750;28;20022;-82
2023/10/19 11:45:45;;;;;;;3.22;1.80;;;15.70;87.20;;;;;;4971982;28;20027;-82
2023/10/19 11:48:11;;;;;;;3.85;2.00;;;15.70;87.20;;;;;;4954338;28;20034;-83
2023/10/19 11:50:37;;;;;;;3.90;2.20;;;15.70;87.20;;;;;;4954770;28;20031;-82
2023/10/19 11:53:03;;;;;;;3.88;1.88;;;15.70;87.30;;;;;;4954239;28;20437;-82
2023/10/19 11:55:29;;;;;;;3.03;1.92;;;15.70;87.30;;;;;;4954654;28;20409;-83
2023/10/19 11:57:54;;;;;;;3.25;1.90;;;15.70;87.30;;;;;;4954535;28;20039;-82
2023/10/19 12:00:21;;;;;;;4.18;1.80;;;15.70;87.30;;;;;;4954700;28;20040;-82
2023/10/19 12:02:48;;;;;;;3.10;1.73;;;15.70;87.40;;;;;;4954492;28;20037;-83
2023/10/19 12:05:13;;;;;;;3.97;1.90;;;15.70;87.40;;;;;;4953894;28;20565;-83
2023/10/19 12:07:39;;;;;;;3.58;1.83;;;15.70;87.40;;;;;;4953852;28;20034;-82
2023/10/19 12:10:10;;;;;;;2.97;1.65;;;15.70;87.50;;;;;;4953988;28;20133;-83
2023/10/19 12:12:37;;;;;;;2.75;1.70;;;15.70;87.40;;;;;;4955985;28;20023;-83
2023/10/19 12:15:05;;;;;;;2.70;1.60;;;15.70;87.40;;;;;;4958218;28;20086;-83
2023/10/19 12:17:31;;;;;;;2.92;1.70;;;15.70;87.30;;;;;;4958308;28;20121;-82
2023/10/19 12:19:56;;;;;;;3.38;1.75;;;15.70;87.30;;;;;;4976258;28;20042;-82
2023/10/19 12:22:24;;;;;;;3.90;1.80;;;15.70;87.20;;;;;;4957856;28;20031;-82
2023/10/19 12:24:51;;;;;;;2.55;1.75;;;15.70;87.10;;;;;;4958573;28;20027;-82
2023/10/19 12:27:18;;;;;;;2.85;1.60;;;15.70;87.10;;;;;;4958124;28;20512;-82
2023/10/19 12:29:43;;;;;;;3.80;1.63;;;15.80;87.10;;;;;;4958065;28;20035;-83
2023/10/19 12:32:09;;;;;;;2.88;1.60;;;15.70;87.10;;;;;;4957654;28;20029;-84
2023/10/19 12:34:35;;;;;;;4.13;1.92;;;15.80;87.20;;;;;;4959106;28;20026;-82
2023/10/19 12:37:02;;;;;;;3.13;1.75;;;15.70;87.20;;;;;;4957278;28;20112;-82
2023/10/19 12:39:43;;;;;;;3.42;1.65;;;15.70;87.20;;;;;;4957722;28;20031;-82
2023/10/19 12:42:09;;;;;;;2.92;1.58;;;15.70;87.30;;;;;;4958809;28;20477;-81
2023/10/19 12:44:41;;;;;;;2.45;1.52;;;15.70;87.30;;;;;;4958184;28;20038;-83
2023/10/19 12:47:10;;;;;;;3.28;1.55;;;15.70;87.30;;;;;;4975510;28;20508;-82
2023/10/19 12:49:45;;;;;;;2.83;1.70;;;15.60;87.30;;;;;;4957018;28;20378;-82
2023/10/19 12:52:11;;;;;;;2.60;1.48;;;15.80;87.40;;;;;;4974945;28;20023;-83
2023/10/19 12:54:37;;;;;;;3.20;1.70;;;15.70;87.40;;;;;;4955004;28;20523;-82
2023/10/19 12:57:06;;;;;;;2.85;1.92;;;15.70;87.50;;;;;;4957051;28;20590;-84
2023/10/19 12:59:32;;;;;;;3.63;1.85;;;15.70;87.50;;;;;;4974184;28;20023;-81
2023/10/19 13:01:58;;;;;;;3.22;1.88;;;15.70;87.50;;;;;;4972763;28;20058;-83
2023/10/19 13:04:30;;;;;;;3.25;1.80;;;15.70;87.50;;;;;;4971663;28;20050;-83
2023/10/19 13:06:57;;;;;;;3.67;2.03;;;15.70;87.60;;;;;;4973579;28;20022;-82
2023/10/19 13:09:32;;;;;;;2.85;1.65;;;15.60;87.50;;;;;;4973346;28;20058;-82
2023/10/19 13:11:59;;;;;;;4.95;1.80;;;15.70;87.60;;;;;;4972933;28;20030;-82
2023/10/19 13:14:26;;;;;;;3.58;1.95;;;15.70;87.60;;;;;;4972960;28;20030;-83